sensor_id;sensor_type;location;lat;lon;timestamp;pressure;altitude;pressure_sealevel;temperature
17142;BMP180;32805;53.556;9.944;2022-11-20T00:00:54;100998.00;;;2.60
17142;BMP180;32805;53.556;9.944;2022-11-20T00:03:22;100997.00;;;2.60
17142;BMP180;32805;53.556;9.944;2022-11-20T00:05:50;101010.00;;;2.60
17142;BMP180;32805;53.556;9.944;2022-11-20T00:08:17;100999.00;;;2.60
17142;BMP180;32805;53.556;9.944;2022-11-20T00:10:45;100990.00;;;2.60
17142;BMP180;32805;53.556;9.944;2022-11-20T00:13:13;100997.00;;;2.50
17142;BMP180;32805;53.556;9.944;2022-11-20T00:15:41;100987.00;;;2.60
17142;BMP180;32805;53.556;9.944;2022-11-20T00:18:10;100996.00;;;2.60
17142;BMP180;32805;53.556;9.944;2022-11-20T00:20:37;101007.00;;;2.50
17142;BMP180;32805;53.556;9.944;2022-11-20T00:23:05;100982.00;;;2.60
17142;BMP180;32805;53.556;9.944;2022-11-20T00:25:33;101005.00;;;2.60
17142;BMP180;32805;53.556;9.944;2022-11-20T00:28:02;101006.00;;;2.50
17142;BMP180;32805;53.556;9.944;2022-11-20T00:30:29;100995.00;;;2.60
17142;BMP180;32805;53.556;9.944;2022-11-20T00:32:57;101003.00;;;2.60
17142;BMP180;32805;53.556;9.944;2022-11-20T00:35:26;100996.00;;;2.60
17142;BMP180;32805;53.556;9.944;2022-11-20T00:37:56;100999.00;;;2.60
17142;BMP180;32805;53.556;9.944;2022-11-20T00:40:23;100995.00;;;2.60
17142;BMP180;32805;53.556;9.944;2022-11-20T00:42:51;100990.00;;;2.60
17142;BMP180;32805;53.556;9.944;2022-11-20T00:45:19;100995.00;;;2.60
17142;BMP180;32805;53.556;9.944;2022-11-20T00:47:46;100985.00;;;2.50
17142;BMP180;32805;53.556;9.944;2022-11-20T00:50:14;100990.00;;;2.50
17142;BMP180;32805;53.556;9.944;2022-11-20T00:52:43;100995.00;;;2.50
17142;BMP180;32805;53.556;9.944;2022-11-20T00:55:11;100994.00;;;2.60
17142;BMP180;32805;53.556;9.944;2022-11-20T00:57:39;101004.00;;;2.60
17142;BMP180;32805;53.556;9.944;2022-11-20T01:00:08;100987.00;;;2.50
17142;BMP180;32805;53.556;9.944;2022-11-20T01:02:35;100985.00;;;2.50
17142;BMP180;32805;53.556;9.944;2022-11-20T01:05:03;100989.00;;;2.50
17142;BMP180;32805;53.556;9.944;2022-11-20T01:07:31;100983.00;;;2.50
17142;BMP180;32805;53.556;9.944;2022-11-20T01:10:07;100979.00;;;2.40
17142;BMP180;32805;53.556;9.944;2022-11-20T01:12:35;100981.00;;;2.30
17142;BMP180;32805;53.556;9.944;2022-11-20T01:15:04;100984.00;;;2.40
17142;BMP180;32805;53.556;9.944;2022-11-20T01:17:32;100984.00;;;2.40
17142;BMP180;32805;53.556;9.944;2022-11-20T01:20:02;100972.00;;;2.40
17142;BMP180;32805;53.556;9.944;2022-11-20T01:22:31;100982.00;;;2.40
17142;BMP180;32805;53.556;9.944;2022-11-20T01:24:58;100981.00;;;2.40
17142;BMP180;32805;53.556;9.944;2022-11-20T01:27:27;100971.00;;;2.40
17142;BMP180;32805;53.556;9.944;2022-11-20T01:29:55;100979.00;;;2.50
17142;BMP180;32805;53.556;9.944;2022-11-20T01:32:26;100958.00;;;2.40
17142;BMP180;32805;53.556;9.944;2022-11-20T01:34:54;100958.00;;;2.40
17142;BMP180;32805;53.556;9.944;2022-11-20T01:37:22;100947.00;;;2.40
17142;BMP180;32805;53.556;9.944;2022-11-20T01:39:50;100959.00;;;2.40
17142;BMP180;32805;53.556;9.944;2022-11-20T01:42:17;100959.00;;;2.40
17142;BMP180;32805;53.556;9.944;2022-11-20T01:48:16;100951.00;;;2.40
17142;BMP180;32805;53.556;9.944;2022-11-20T01:50:45;100948.00;;;2.30
17142;BMP180;32805;53.556;9.944;2022-11-20T01:53:15;100945.00;;;2.30
17142;BMP180;32805;53.556;9.944;2022-11-20T01:55:47;100938.00;;;2.40
17142;BMP180;32805;53.556;9.944;2022-11-20T01:58:16;100945.00;;;2.40
17142;BMP180;32805;53.556;9.944;2022-11-20T02:00:46;100923.00;;;2.40
17142;BMP180;32805;53.556;9.944;2022-11-20T02:03:17;100931.00;;;2.50
17142;BMP180;32805;53.556;9.944;2022-11-20T02:05:49;100934.00;;;2.40
17142;BMP180;32805;53.556;9.944;2022-11-20T02:08:20;100941.00;;;2.50
17142;BMP180;32805;53.556;9.944;2022-11-20T02:10:49;100933.00;;;2.40
17142;BMP180;32805;53.556;9.944;2022-11-20T02:13:16;100920.00;;;2.40
17142;BMP180;32805;53.556;9.944;2022-11-20T02:16:03;100926.00;;;2.40
17142;BMP180;32805;53.556;9.944;2022-11-20T02:18:33;100918.00;;;2.30
17142;BMP180;32805;53.556;9.944;2022-11-20T02:21:06;100929.00;;;2.30
17142;BMP180;32805;53.556;9.944;2022-11-20T02:23:38;100929.00;;;2.30
17142;BMP180;32805;53.556;9.944;2022-11-20T02:26:11;100916.00;;;2.40
17142;BMP180;32805;53.556;9.944;2022-11-20T02:28:40;100921.00;;;2.50
17142;BMP180;32805;53.556;9.944;2022-11-20T02:31:07;100917.00;;;2.40
17142;BMP180;32805;53.556;9.944;2022-11-20T02:33:35;100924.00;;;2.50
17142;BMP180;32805;53.556;9.944;2022-11-20T02:36:03;100926.00;;;2.50
17142;BMP180;32805;53.556;9.944;2022-11-20T02:38:31;100920.00;;;2.50
17142;BMP180;32805;53.556;9.944;2022-11-20T02:40:58;100922.00;;;2.50
17142;BMP180;32805;53.556;9.944;2022-11-20T02:43:27;100915.00;;;2.50
17142;BMP180;32805;53.556;9.944;2022-11-20T02:45:55;100918.00;;;2.60
17142;BMP180;32805;53.556;9.944;2022-11-20T02:48:23;100911.00;;;2.60
17142;BMP180;32805;53.556;9.944;2022-11-20T02:50:51;100897.00;;;2.70
17142;BMP180;32805;53.556;9.944;2022-11-20T02:53:21;100911.00;;;2.60
17142;BMP180;32805;53.556;9.944;2022-11-20T02:55:49;100903.00;;;2.70
17142;BMP180;32805;53.556;9.944;2022-11-20T02:58:17;100896.00;;;2.70
17142;BMP180;32805;53.556;9.944;2022-11-20T03:00:46;100903.00;;;2.60
17142;BMP180;32805;53.556;9.944;2022-11-20T03:03:14;100892.00;;;2.60
17142;BMP180;32805;53.556;9.944;2022-11-20T03:05:41;100899.00;;;2.50
17142;BMP180;32805;53.556;9.944;2022-11-20T03:08:09;100901.00;;;2.50
17142;BMP180;32805;53.556;9.944;2022-11-20T03:10:37;100895.00;;;2.50
17142;BMP180;32805;53.556;9.944;2022-11-20T03:13:04;100888.00;;;2.50
17142;BMP180;32805;53.556;9.944;2022-11-20T03:15:32;100902.00;;;2.50
17142;BMP180;32805;53.556;9.944;2022-11-20T03:18:01;100902.00;;;2.60
17142;BMP180;32805;53.556;9.944;2022-11-20T03:20:29;100909.00;;;2.50
17142;BMP180;32805;53.556;9.944;2022-11-20T03:22:57;100896.00;;;2.50
17142;BMP180;32805;53.556;9.944;2022-11-20T03:25:25;100888.00;;;2.40
17142;BMP180;32805;53.556;9.944;2022-11-20T03:27:53;100908.00;;;2.40
17142;BMP180;32805;53.556;9.944;2022-11-20T03:30:21;100902.00;;;2.50
17142;BMP180;32805;53.556;9.944;2022-11-20T03:32:56;100907.00;;;2.50
17142;BMP180;32805;53.556;9.944;2022-11-20T03:35:25;100899.00;;;2.50
17142;BMP180;32805;53.556;9.944;2022-11-20T03:37:53;100891.00;;;2.40
17142;BMP180;32805;53.556;9.944;2022-11-20T03:40:20;100904.00;;;2.30
17142;BMP180;32805;53.556;9.944;2022-11-20T03:42:48;100883.00;;;2.30
17142;BMP180;32805;53.556;9.944;2022-11-20T03:45:17;100894.00;;;2.30
17142;BMP180;32805;53.556;9.944;2022-11-20T03:47:45;100879.00;;;2.40
17142;BMP180;32805;53.556;9.944;2022-11-20T03:50:14;100888.00;;;2.50
17142;BMP180;32805;53.556;9.944;2022-11-20T03:52:43;100880.00;;;2.50
17142;BMP180;32805;53.556;9.944;2022-11-20T03:55:10;100875.00;;;2.50
17142;BMP180;32805;53.556;9.944;2022-11-20T03:57:38;100878.00;;;2.50
17142;BMP180;32805;53.556;9.944;2022-11-20T04:00:07;100878.00;;;2.50
17142;BMP180;32805;53.556;9.944;2022-11-20T04:02:35;100864.00;;;2.50
17142;BMP180;32805;53.556;9.944;2022-11-20T04:05:02;100866.00;;;2.50
17142;BMP180;32805;53.556;9.944;2022-11-20T04:07:30;100878.00;;;2.50
17142;BMP180;32805;53.556;9.944;2022-11-20T04:09:59;100870.00;;;2.40
17142;BMP180;32805;53.556;9.944;2022-11-20T04:12:27;100873.00;;;2.40
17142;BMP180;32805;53.556;9.944;2022-11-20T04:14:58;100876.00;;;2.50
17142;BMP180;32805;53.556;9.944;2022-11-20T04:17:26;100864.00;;;2.40
17142;BMP180;32805;53.556;9.944;2022-11-20T04:19:54;100873.00;;;2.40
17142;BMP180;32805;53.556;9.944;2022-11-20T04:22:22;100856.00;;;2.40
17142;BMP180;32805;53.556;9.944;2022-11-20T04:24:50;100872.00;;;2.40
17142;BMP180;32805;53.556;9.944;2022-11-20T04:27:19;100861.00;;;2.40
17142;BMP180;32805;53.556;9.944;2022-11-20T04:29:47;100872.00;;;2.40
17142;BMP180;32805;53.556;9.944;2022-11-20T04:32:15;100863.00;;;2.40
17142;BMP180;32805;53.556;9.944;2022-11-20T04:34:42;100864.00;;;2.40
17142;BMP180;32805;53.556;9.944;2022-11-20T04:37:10;100856.00;;;2.40
17142;BMP180;32805;53.556;9.944;2022-11-20T04:39:38;100856.00;;;2.40
17142;BMP180;32805;53.556;9.944;2022-11-20T04:42:08;100855.00;;;2.40
17142;BMP180;32805;53.556;9.944;2022-11-20T04:44:54;100857.00;;;2.40
17142;BMP180;32805;53.556;9.944;2022-11-20T04:47:21;100855.00;;;2.40
17142;BMP180;32805;53.556;9.944;2022-11-20T04:49:49;100852.00;;;2.40
17142;BMP180;32805;53.556;9.944;2022-11-20T04:52:17;100852.00;;;2.30
17142;BMP180;32805;53.556;9.944;2022-11-20T04:54:45;100853.00;;;2.40
17142;BMP180;32805;53.556;9.944;2022-11-20T04:57:14;100844.00;;;2.30
17142;BMP180;32805;53.556;9.944;2022-11-20T04:59:42;100850.00;;;2.30
17142;BMP180;32805;53.556;9.944;2022-11-20T05:02:12;100854.00;;;2.30
17142;BMP180;32805;53.556;9.944;2022-11-20T05:04:39;100846.00;;;2.30
17142;BMP180;32805;53.556;9.944;2022-11-20T05:07:07;100845.00;;;2.30
17142;BMP180;32805;53.556;9.944;2022-11-20T05:09:35;100851.00;;;2.30
17142;BMP180;32805;53.556;9.944;2022-11-20T05:12:03;100836.00;;;2.40
17142;BMP180;32805;53.556;9.944;2022-11-20T05:14:31;100838.00;;;2.40
17142;BMP180;32805;53.556;9.944;2022-11-20T05:16:59;100832.00;;;2.40
17142;BMP180;32805;53.556;9.944;2022-11-20T05:19:28;100834.00;;;2.40
17142;BMP180;32805;53.556;9.944;2022-11-20T05:21:56;100821.00;;;2.30
17142;BMP180;32805;53.556;9.944;2022-11-20T05:24:23;100824.00;;;2.30
17142;BMP180;32805;53.556;9.944;2022-11-20T05:26:51;100824.00;;;2.30
17142;BMP180;32805;53.556;9.944;2022-11-20T05:29:19;100827.00;;;2.30
17142;BMP180;32805;53.556;9.944;2022-11-20T05:31:47;100830.00;;;2.20
17142;BMP180;32805;53.556;9.944;2022-11-20T05:34:15;100820.00;;;2.20
17142;BMP180;32805;53.556;9.944;2022-11-20T05:36:44;100834.00;;;2.10
17142;BMP180;32805;53.556;9.944;2022-11-20T05:39:11;100827.00;;;2.20
17142;BMP180;32805;53.556;9.944;2022-11-20T05:41:39;100824.00;;;2.20
17142;BMP180;32805;53.556;9.944;2022-11-20T05:44:06;100812.00;;;2.20
17142;BMP180;32805;53.556;9.944;2022-11-20T05:46:34;100813.00;;;2.20
17142;BMP180;32805;53.556;9.944;2022-11-20T05:49:02;100814.00;;;2.20
17142;BMP180;32805;53.556;9.944;2022-11-20T05:51:29;100814.00;;;2.10
17142;BMP180;32805;53.556;9.944;2022-11-20T05:53:59;100802.00;;;2.00
17142;BMP180;32805;53.556;9.944;2022-11-20T05:56:26;100803.00;;;2.00
17142;BMP180;32805;53.556;9.944;2022-11-20T05:58:54;100803.00;;;2.00
17142;BMP180;32805;53.556;9.944;2022-11-20T06:01:23;100800.00;;;2.00
17142;BMP180;32805;53.556;9.944;2022-11-20T06:03:52;100802.00;;;2.00
17142;BMP180;32805;53.556;9.944;2022-11-20T06:06:20;100797.00;;;2.00
17142;BMP180;32805;53.556;9.944;2022-11-20T06:08:49;100803.00;;;2.00
17142;BMP180;32805;53.556;9.944;2022-11-20T06:11:18;100802.00;;;2.00
17142;BMP180;32805;53.556;9.944;2022-11-20T06:13:46;100797.00;;;2.00
17142;BMP180;32805;53.556;9.944;2022-11-20T06:16:16;100807.00;;;2.10
17142;BMP180;32805;53.556;9.944;2022-11-20T06:18:44;100801.00;;;2.10
17142;BMP180;32805;53.556;9.944;2022-11-20T06:21:13;100794.00;;;2.00
17142;BMP180;32805;53.556;9.944;2022-11-20T06:23:42;100807.00;;;2.00
17142;BMP180;32805;53.556;9.944;2022-11-20T06:26:13;100795.00;;;1.90
17142;BMP180;32805;53.556;9.944;2022-11-20T06:28:42;100800.00;;;2.00
17142;BMP180;32805;53.556;9.944;2022-11-20T06:31:11;100802.00;;;2.00
17142;BMP180;32805;53.556;9.944;2022-11-20T06:33:39;100797.00;;;2.10
17142;BMP180;32805;53.556;9.944;2022-11-20T06:36:07;100808.00;;;2.00
17142;BMP180;32805;53.556;9.944;2022-11-20T06:38:36;100799.00;;;2.10
17142;BMP180;32805;53.556;9.944;2022-11-20T06:41:04;100805.00;;;2.10
17142;BMP180;32805;53.556;9.944;2022-11-20T06:43:32;100779.00;;;2.00
17142;BMP180;32805;53.556;9.944;2022-11-20T06:46:01;100768.00;;;2.00
17142;BMP180;32805;53.556;9.944;2022-11-20T06:48:29;100799.00;;;2.00
17142;BMP180;32805;53.556;9.944;2022-11-20T06:50:57;100797.00;;;1.90
17142;BMP180;32805;53.556;9.944;2022-11-20T06:53:28;100789.00;;;1.90
17142;BMP180;32805;53.556;9.944;2022-11-20T06:55:56;100798.00;;;1.90
17142;BMP180;32805;53.556;9.944;2022-11-20T06:58:26;100804.00;;;1.90
17142;BMP180;32805;53.556;9.944;2022-11-20T07:00:57;100798.00;;;1.90
17142;BMP180;32805;53.556;9.944;2022-11-20T07:03:27;100803.00;;;1.80
17142;BMP180;32805;53.556;9.944;2022-11-20T07:05:55;100800.00;;;1.80
17142;BMP180;32805;53.556;9.944;2022-11-20T07:08:23;100797.00;;;1.80
17142;BMP180;32805;53.556;9.944;2022-11-20T07:10:50;100803.00;;;1.80
17142;BMP180;32805;53.556;9.944;2022-11-20T07:13:18;100801.00;;;1.70
17142;BMP180;32805;53.556;9.944;2022-11-20T07:15:46;100809.00;;;1.70
17142;BMP180;32805;53.556;9.944;2022-11-20T07:18:14;100808.00;;;1.70
17142;BMP180;32805;53.556;9.944;2022-11-20T07:20:43;100794.00;;;1.80
17142;BMP180;32805;53.556;9.944;2022-11-20T07:23:10;100795.00;;;1.80
17142;BMP180;32805;53.556;9.944;2022-11-20T07:25:38;100794.00;;;1.90
17142;BMP180;32805;53.556;9.944;2022-11-20T07:28:06;100798.00;;;1.90
17142;BMP180;32805;53.556;9.944;2022-11-20T07:30:33;100773.00;;;1.90
17142;BMP180;32805;53.556;9.944;2022-11-20T07:33:01;100784.00;;;1.80
17142;BMP180;32805;53.556;9.944;2022-11-20T07:35:29;100785.00;;;1.90
17142;BMP180;32805;53.556;9.944;2022-11-20T07:37:58;100795.00;;;1.90
17142;BMP180;32805;53.556;9.944;2022-11-20T07:40:26;100789.00;;;2.00
17142;BMP180;32805;53.556;9.944;2022-11-20T07:42:54;100797.00;;;2.00
17142;BMP180;32805;53.556;9.944;2022-11-20T07:45:23;100805.00;;;2.00
17142;BMP180;32805;53.556;9.944;2022-11-20T07:47:51;100810.00;;;2.10
17142;BMP180;32805;53.556;9.944;2022-11-20T07:50:19;100805.00;;;2.10
17142;BMP180;32805;53.556;9.944;2022-11-20T07:52:47;100784.00;;;2.00
17142;BMP180;32805;53.556;9.944;2022-11-20T07:55:16;100789.00;;;2.20
17142;BMP180;32805;53.556;9.944;2022-11-20T07:57:44;100778.00;;;2.10
17142;BMP180;32805;53.556;9.944;2022-11-20T08:00:14;100797.00;;;2.10
17142;BMP180;32805;53.556;9.944;2022-11-20T08:02:42;100799.00;;;2.00
17142;BMP180;32805;53.556;9.944;2022-11-20T08:05:13;100792.00;;;1.90
17142;BMP180;32805;53.556;9.944;2022-11-20T08:07:42;100790.00;;;1.90
17142;BMP180;32805;53.556;9.944;2022-11-20T08:10:12;100791.00;;;1.90
17142;BMP180;32805;53.556;9.944;2022-11-20T08:12:45;100779.00;;;1.90
17142;BMP180;32805;53.556;9.944;2022-11-20T08:15:30;100798.00;;;2.00
17142;BMP180;32805;53.556;9.944;2022-11-20T08:18:00;100791.00;;;2.00
17142;BMP180;32805;53.556;9.944;2022-11-20T08:20:47;100795.00;;;2.10
17142;BMP180;32805;53.556;9.944;2022-11-20T08:23:15;100796.00;;;2.20
17142;BMP180;32805;53.556;9.944;2022-11-20T08:25:43;100776.00;;;2.30
17142;BMP180;32805;53.556;9.944;2022-11-20T08:28:12;100790.00;;;2.30
17142;BMP180;32805;53.556;9.944;2022-11-20T08:30:47;100798.00;;;2.20
17142;BMP180;32805;53.556;9.944;2022-11-20T08:33:15;100796.00;;;2.20
17142;BMP180;32805;53.556;9.944;2022-11-20T08:35:43;100794.00;;;2.20
17142;BMP180;32805;53.556;9.944;2022-11-20T08:38:11;100798.00;;;2.30
17142;BMP180;32805;53.556;9.944;2022-11-20T08:40:39;100786.00;;;2.20
17142;BMP180;32805;53.556;9.944;2022-11-20T08:43:06;100800.00;;;2.20
17142;BMP180;32805;53.556;9.944;2022-11-20T08:45:35;100800.00;;;2.20
17142;BMP180;32805;53.556;9.944;2022-11-20T08:48:04;100789.00;;;2.30
17142;BMP180;32805;53.556;9.944;2022-11-20T08:50:32;100795.00;;;2.30
17142;BMP180;32805;53.556;9.944;2022-11-20T08:53:02;100799.00;;;2.20
17142;BMP180;32805;53.556;9.944;2022-11-20T08:55:30;100772.00;;;2.30
17142;BMP180;32805;53.556;9.944;2022-11-20T08:57:58;100806.00;;;2.30
17142;BMP180;32805;53.556;9.944;2022-11-20T09:00:30;100790.00;;;2.40
17142;BMP180;32805;53.556;9.944;2022-11-20T09:03:00;100792.00;;;2.50
17142;BMP180;32805;53.556;9.944;2022-11-20T09:05:28;100805.00;;;2.50
17142;BMP180;32805;53.556;9.944;2022-11-20T09:07:57;100794.00;;;2.60
17142;BMP180;32805;53.556;9.944;2022-11-20T09:10:25;100789.00;;;2.60
17142;BMP180;32805;53.556;9.944;2022-11-20T09:12:56;100814.00;;;2.50
17142;BMP180;32805;53.556;9.944;2022-11-20T09:15:32;100748.00;;;2.50
17142;BMP180;32805;53.556;9.944;2022-11-20T09:18:09;100774.00;;;2.60
17142;BMP180;32805;53.556;9.944;2022-11-20T09:20:37;100799.00;;;2.70
17142;BMP180;32805;53.556;9.944;2022-11-20T09:23:08;100803.00;;;2.70
17142;BMP180;32805;53.556;9.944;2022-11-20T09:25:36;100803.00;;;2.70
17142;BMP180;32805;53.556;9.944;2022-11-20T09:28:03;100806.00;;;2.60
17142;BMP180;32805;53.556;9.944;2022-11-20T09:30:34;100804.00;;;2.70
17142;BMP180;32805;53.556;9.944;2022-11-20T09:33:07;100801.00;;;2.60
17142;BMP180;32805;53.556;9.944;2022-11-20T09:35:35;100799.00;;;2.70
17142;BMP180;32805;53.556;9.944;2022-11-20T09:38:06;100800.00;;;2.80
17142;BMP180;32805;53.556;9.944;2022-11-20T09:40:39;100792.00;;;2.80
17142;BMP180;32805;53.556;9.944;2022-11-20T09:43:12;100806.00;;;2.60
17142;BMP180;32805;53.556;9.944;2022-11-20T09:45:53;100795.00;;;2.60
17142;BMP180;32805;53.556;9.944;2022-11-20T09:48:36;100804.00;;;2.50
17142;BMP180;32805;53.556;9.944;2022-11-20T09:51:11;100792.00;;;2.50
17142;BMP180;32805;53.556;9.944;2022-11-20T09:53:47;100771.00;;;2.40
17142;BMP180;32805;53.556;9.944;2022-11-20T09:56:20;100810.00;;;2.30
17142;BMP180;32805;53.556;9.944;2022-11-20T09:58:50;100808.00;;;2.40
17142;BMP180;32805;53.556;9.944;2022-11-20T10:01:20;100813.00;;;2.40
17142;BMP180;32805;53.556;9.944;2022-11-20T10:03:54;100804.00;;;2.50
17142;BMP180;32805;53.556;9.944;2022-11-20T10:06:29;100802.00;;;2.60
17142;BMP180;32805;53.556;9.944;2022-11-20T10:09:08;100799.00;;;2.80
17142;BMP180;32805;53.556;9.944;2022-11-20T10:11:46;100797.00;;;2.80
17142;BMP180;32805;53.556;9.944;2022-11-20T10:14:23;100791.00;;;2.80
17142;BMP180;32805;53.556;9.944;2022-11-20T10:17:02;100800.00;;;2.80
17142;BMP180;32805;53.556;9.944;2022-11-20T10:19:50;100791.00;;;3.00
17142;BMP180;32805;53.556;9.944;2022-11-20T10:22:33;100791.00;;;3.00
17142;BMP180;32805;53.556;9.944;2022-11-20T10:25:06;100790.00;;;3.30
17142;BMP180;32805;53.556;9.944;2022-11-20T10:30:55;100785.00;;;3.30
17142;BMP180;32805;53.556;9.944;2022-11-20T10:33:25;100775.00;;;3.30
17142;BMP180;32805;53.556;9.944;2022-11-20T10:36:19;100775.00;;;3.30
17142;BMP180;32805;53.556;9.944;2022-11-20T10:38:51;100779.00;;;3.20
17142;BMP180;32805;53.556;9.944;2022-11-20T10:41:23;100769.00;;;3.30
17142;BMP180;32805;53.556;9.944;2022-11-20T10:44:01;100762.00;;;3.10
17142;BMP180;32805;53.556;9.944;2022-11-20T10:46:36;100768.00;;;3.10
17142;BMP180;32805;53.556;9.944;2022-11-20T10:49:12;100766.00;;;3.00
17142;BMP180;32805;53.556;9.944;2022-11-20T10:51:50;100761.00;;;3.00
17142;BMP180;32805;53.556;9.944;2022-11-20T10:54:23;100757.00;;;2.90
17142;BMP180;32805;53.556;9.944;2022-11-20T10:56:59;100763.00;;;3.00
17142;BMP180;32805;53.556;9.944;2022-11-20T11:02:35;100770.00;;;3.00
17142;BMP180;32805;53.556;9.944;2022-11-20T11:05:17;100768.00;;;2.90
17142;BMP180;32805;53.556;9.944;2022-11-20T11:07:50;100750.00;;;3.00
17142;BMP180;32805;53.556;9.944;2022-11-20T11:10:21;100737.00;;;3.00
17142;BMP180;32805;53.556;9.944;2022-11-20T11:12:50;100750.00;;;3.20
17142;BMP180;32805;53.556;9.944;2022-11-20T11:15:26;100739.00;;;3.10
17142;BMP180;32805;53.556;9.944;2022-11-20T11:17:54;100742.00;;;3.00
17142;BMP180;32805;53.556;9.944;2022-11-20T11:20:22;100756.00;;;2.80
17142;BMP180;32805;53.556;9.944;2022-11-20T11:22:54;100742.00;;;2.70
17142;BMP180;32805;53.556;9.944;2022-11-20T11:25:28;100744.00;;;2.60
17142;BMP180;32805;53.556;9.944;2022-11-20T11:27:58;100746.00;;;2.70
17142;BMP180;32805;53.556;9.944;2022-11-20T11:30:27;100742.00;;;2.90
17142;BMP180;32805;53.556;9.944;2022-11-20T11:33:04;100737.00;;;3.00
17142;BMP180;32805;53.556;9.944;2022-11-20T11:35:33;100746.00;;;3.00
17142;BMP180;32805;53.556;9.944;2022-11-20T11:38:05;100746.00;;;3.10
17142;BMP180;32805;53.556;9.944;2022-11-20T11:40:35;100741.00;;;3.20
17142;BMP180;32805;53.556;9.944;2022-11-20T11:43:05;100749.00;;;3.20
17142;BMP180;32805;53.556;9.944;2022-11-20T11:46:00;100745.00;;;3.10
17142;BMP180;32805;53.556;9.944;2022-11-20T11:48:27;100744.00;;;2.90
17142;BMP180;32805;53.556;9.944;2022-11-20T11:50:55;100757.00;;;3.00
17142;BMP180;32805;53.556;9.944;2022-11-20T11:53:25;100740.00;;;2.90
17142;BMP180;32805;53.556;9.944;2022-11-20T11:55:56;100748.00;;;2.90
17142;BMP180;32805;53.556;9.944;2022-11-20T11:58:38;100746.00;;;2.90
17142;BMP180;32805;53.556;9.944;2022-11-20T12:01:20;100739.00;;;2.90
17142;BMP180;32805;53.556;9.944;2022-11-20T12:03:55;100733.00;;;2.90
17142;BMP180;32805;53.556;9.944;2022-11-20T12:06:27;100713.00;;;3.00
17142;BMP180;32805;53.556;9.944;2022-11-20T12:09:02;100744.00;;;3.00
17142;BMP180;32805;53.556;9.944;2022-11-20T12:11:33;100733.00;;;3.00
17142;BMP180;32805;53.556;9.944;2022-11-20T12:14:07;100734.00;;;3.00
17142;BMP180;32805;53.556;9.944;2022-11-20T12:16:37;100728.00;;;3.00
17142;BMP180;32805;53.556;9.944;2022-11-20T12:19:10;100727.00;;;3.10
17142;BMP180;32805;53.556;9.944;2022-11-20T12:21:46;100720.00;;;3.30
17142;BMP180;32805;53.556;9.944;2022-11-20T12:24:36;100727.00;;;3.40
17142;BMP180;32805;53.556;9.944;2022-11-20T12:30:01;100716.00;;;3.60
17142;BMP180;32805;53.556;9.944;2022-11-20T12:35:32;100715.00;;;3.40
17142;BMP180;32805;53.556;9.944;2022-11-20T12:38:18;100707.00;;;3.30
17142;BMP180;32805;53.556;9.944;2022-11-20T12:40:56;100691.00;;;3.30
17142;BMP180;32805;53.556;9.944;2022-11-20T12:43:30;100706.00;;;3.40
17142;BMP180;32805;53.556;9.944;2022-11-20T12:46:26;100677.00;;;3.20
17142;BMP180;32805;53.556;9.944;2022-11-20T12:49:20;100694.00;;;3.40
17142;BMP180;32805;53.556;9.944;2022-11-20T12:52:03;100706.00;;;3.30
17142;BMP180;32805;53.556;9.944;2022-11-20T12:55:04;100700.00;;;3.40
17142;BMP180;32805;53.556;9.944;2022-11-20T12:57:43;100702.00;;;3.30
17142;BMP180;32805;53.556;9.944;2022-11-20T13:00:15;100698.00;;;3.30
17142;BMP180;32805;53.556;9.944;2022-11-20T13:03:15;100711.00;;;3.40
17142;BMP180;32805;53.556;9.944;2022-11-20T13:05:54;100713.00;;;3.50
17142;BMP180;32805;53.556;9.944;2022-11-20T13:08:24;100684.00;;;3.70
17142;BMP180;32805;53.556;9.944;2022-11-20T13:11:00;100691.00;;;3.80
17142;BMP180;32805;53.556;9.944;2022-11-20T13:13:39;100683.00;;;3.80
17142;BMP180;32805;53.556;9.944;2022-11-20T13:16:16;100677.00;;;3.90
17142;BMP180;32805;53.556;9.944;2022-11-20T13:18:46;100684.00;;;3.90
17142;BMP180;32805;53.556;9.944;2022-11-20T13:21:16;100688.00;;;3.90
17142;BMP180;32805;53.556;9.944;2022-11-20T13:23:44;100679.00;;;3.90
17142;BMP180;32805;53.556;9.944;2022-11-20T13:26:18;100690.00;;;3.90
17142;BMP180;32805;53.556;9.944;2022-11-20T13:29:03;100679.00;;;3.80
17142;BMP180;32805;53.556;9.944;2022-11-20T13:31:34;100692.00;;;3.70
17142;BMP180;32805;53.556;9.944;2022-11-20T13:34:04;100678.00;;;3.70
17142;BMP180;32805;53.556;9.944;2022-11-20T13:36:33;100678.00;;;3.70
17142;BMP180;32805;53.556;9.944;2022-11-20T13:39:03;100679.00;;;3.80
17142;BMP180;32805;53.556;9.944;2022-11-20T13:41:32;100671.00;;;3.70
17142;BMP180;32805;53.556;9.944;2022-11-20T13:44:12;100678.00;;;3.80
17142;BMP180;32805;53.556;9.944;2022-11-20T13:46:42;100682.00;;;3.90
17142;BMP180;32805;53.556;9.944;2022-11-20T13:49:22;100676.00;;;3.90
17142;BMP180;32805;53.556;9.944;2022-11-20T13:51:53;100662.00;;;3.70
17142;BMP180;32805;53.556;9.944;2022-11-20T13:54:46;100657.00;;;3.70
17142;BMP180;32805;53.556;9.944;2022-11-20T13:57:37;100653.00;;;3.80
17142;BMP180;32805;53.556;9.944;2022-11-20T14:00:12;100654.00;;;3.80
17142;BMP180;32805;53.556;9.944;2022-11-20T14:02:43;100654.00;;;3.80
17142;BMP180;32805;53.556;9.944;2022-11-20T14:05:19;100648.00;;;3.80
17142;BMP180;32805;53.556;9.944;2022-11-20T14:07:48;100661.00;;;3.70
17142;BMP180;32805;53.556;9.944;2022-11-20T14:10:22;100652.00;;;3.70
17142;BMP180;32805;53.556;9.944;2022-11-20T14:12:57;100655.00;;;3.70
17142;BMP180;32805;53.556;9.944;2022-11-20T14:15:28;100650.00;;;3.70
17142;BMP180;32805;53.556;9.944;2022-11-20T14:17:57;100647.00;;;3.70
17142;BMP180;32805;53.556;9.944;2022-11-20T14:20:27;100637.00;;;3.70
17142;BMP180;32805;53.556;9.944;2022-11-20T14:22:56;100655.00;;;3.70
17142;BMP180;32805;53.556;9.944;2022-11-20T14:25:25;100651.00;;;3.70
17142;BMP180;32805;53.556;9.944;2022-11-20T14:27:55;100649.00;;;3.70
17142;BMP180;32805;53.556;9.944;2022-11-20T14:30:28;100634.00;;;3.70
17142;BMP180;32805;53.556;9.944;2022-11-20T14:33:01;100642.00;;;3.60
17142;BMP180;32805;53.556;9.944;2022-11-20T14:35:34;100639.00;;;3.60
17142;BMP180;32805;53.556;9.944;2022-11-20T14:38:02;100632.00;;;3.60
17142;BMP180;32805;53.556;9.944;2022-11-20T14:40:32;100622.00;;;3.60
17142;BMP180;32805;53.556;9.944;2022-11-20T14:43:16;100644.00;;;3.60
17142;BMP180;32805;53.556;9.944;2022-11-20T14:45:50;100633.00;;;3.60